UAL656 KEWR-KORD
Flight info
| Callsign | UAL656 |
|---|---|
| Flight time | 1h 23m |
| Altitude | 38000 |
| Route | DCT COATE Q436 KAYYS WYNDE3 |
| Aircraft | B77W/H-SDE1E2E3FGHIJ2J3J4J5M1RWXY/LB1D1 |
Departure
| Time | 2026-04-30 10:45 |
|---|---|
| Airport | Newark Liberty International Airport (KEWR) |
Arrival
| Time | 2026-04-30 12:08 |
|---|---|
| Airport | Chicago O'Hare International Airport (KORD) |
| Time | Latitude | Longitude | Altitude | Speed | Heading |
|---|---|---|---|---|---|
| 2026-04-30 10:23 | 40.69871 | -74.17758 | 26 ft | 0 kts | 277° |
| 2026-04-30 10:34 | 40.69868 | -74.17733 | 26 ft | 3 kts | 288° |
| 2026-04-30 10:34 | 40.69860 | -74.17708 | 25 ft | 3 kts | 309° |
| 2026-04-30 10:34 | 40.69847 | -74.17692 | 25 ft | 3 kts | 340° |
| 2026-04-30 10:34 | 40.69834 | -74.17688 | 25 ft | 3 kts | 18° |
| 2026-04-30 10:35 | 40.69824 | -74.17693 | 25 ft | 3 kts | 40° |
| 2026-04-30 10:35 | 40.69838 | -74.17676 | 25 ft | 2 kts | 41° |
| 2026-04-30 10:35 | 40.69839 | -74.17675 | 25 ft | 0 kts | 41° |
| 2026-04-30 10:37 | 40.69840 | -74.17674 | 25 ft | 1 kts | 41° |
| 2026-04-30 10:38 | 40.69855 | -74.17655 | 27 ft | 8 kts | 44° |
| 2026-04-30 10:38 | 40.69890 | -74.17578 | 27 ft | 10 kts | 63° |
| 2026-04-30 10:38 | 40.69938 | -74.17507 | 29 ft | 11 kts | 38° |
| 2026-04-30 10:38 | 40.69992 | -74.17442 | 29 ft | 11 kts | 45° |
| 2026-04-30 10:39 | 40.70036 | -74.17368 | 30 ft | 11 kts | 69° |
| 2026-04-30 10:39 | 40.70036 | -74.17271 | 30 ft | 11 kts | 95° |
| 2026-04-30 10:39 | 40.70029 | -74.17172 | 29 ft | 11 kts | 95° |
| 2026-04-30 10:39 | 40.70022 | -74.17063 | 27 ft | 13 kts | 95° |
| 2026-04-30 10:40 | 40.70013 | -74.16930 | 25 ft | 16 kts | 95° |
| 2026-04-30 10:40 | 40.70006 | -74.16818 | 22 ft | 7 kts | 95° |
| 2026-04-30 10:40 | 40.70005 | -74.16773 | 25 ft | 4 kts | 85° |
| 2026-04-30 10:40 | 40.70026 | -74.16750 | 25 ft | 4 kts | 9° |
| 2026-04-30 10:41 | 40.70062 | -74.16746 | 25 ft | 6 kts | 5° |
| 2026-04-30 10:41 | 40.70109 | -74.16741 | 23 ft | 8 kts | 5° |
| 2026-04-30 10:41 | 40.70169 | -74.16734 | 23 ft | 9 kts | 5° |
| 2026-04-30 10:41 | 40.70229 | -74.16727 | 25 ft | 9 kts | 5° |
| 2026-04-30 10:42 | 40.70268 | -74.16722 | 26 ft | 4 kts | 5° |
| 2026-04-30 10:42 | 40.70285 | -74.16717 | 27 ft | 2 kts | 24° |
| 2026-04-30 10:42 | 40.70295 | -74.16698 | 28 ft | 4 kts | 61° |
| 2026-04-30 10:42 | 40.70297 | -74.16658 | 28 ft | 5 kts | 90° |
| 2026-04-30 10:43 | 40.70294 | -74.16608 | 25 ft | 6 kts | 95° |
| 2026-04-30 10:43 | 40.70289 | -74.16534 | 28 ft | 10 kts | 95° |
| 2026-04-30 10:43 | 40.70283 | -74.16438 | 26 ft | 11 kts | 95° |
| 2026-04-30 10:43 | 40.70277 | -74.16339 | 24 ft | 11 kts | 95° |
| 2026-04-30 10:44 | 40.70271 | -74.16263 | 27 ft | 6 kts | 99° |
| 2026-04-30 10:44 | 40.70238 | -74.16238 | 25 ft | 7 kts | 184° |
| 2026-04-30 10:44 | 40.70189 | -74.16264 | 23 ft | 8 kts | 206° |
| 2026-04-30 10:44 | 40.70051 | -74.16352 | 20 ft | 59 kts | 206° |
| 2026-04-30 10:45 | 40.69300 | -74.16823 | 34 ft | 179 kts | 205° |
| 2026-04-30 10:45 | 40.68053 | -74.17618 | 1022 ft | 191 kts | 206° |
| 2026-04-30 10:45 | 40.66866 | -74.18363 | 2253 ft | 188 kts | 206° |
| 2026-04-30 10:45 | 40.65721 | -74.19248 | 2942 ft | 202 kts | 227° |
| 2026-04-30 10:46 | 40.65087 | -74.20913 | 3545 ft | 212 kts | 263° |
| 2026-04-30 10:46 | 40.65304 | -74.22863 | 4247 ft | 224 kts | 296° |
| 2026-04-30 10:46 | 40.66227 | -74.24499 | 5046 ft | 230 kts | 311° |
| 2026-04-30 10:46 | 40.67313 | -74.26069 | 6018 ft | 232 kts | 312° |
| 2026-04-30 10:47 | 40.68431 | -74.27674 | 6772 ft | 248 kts | 312° |
| 2026-04-30 10:47 | 40.69656 | -74.29430 | 7393 ft | 266 kts | 311° |
| 2026-04-30 10:47 | 40.70897 | -74.31286 | 8361 ft | 272 kts | 310° |
| 2026-04-30 10:47 | 40.72152 | -74.33177 | 9440 ft | 276 kts | 309° |
| 2026-04-30 10:48 | 40.73422 | -74.35091 | 10427 ft | 279 kts | 309° |
| 2026-04-30 10:48 | 40.74708 | -74.37029 | 11394 ft | 282 kts | 309° |
| 2026-04-30 10:48 | 40.76015 | -74.38996 | 12354 ft | 287 kts | 309° |
| 2026-04-30 10:48 | 40.77332 | -74.40979 | 13143 ft | 300 kts | 309° |
| 2026-04-30 10:49 | 40.78769 | -74.43145 | 13541 ft | 323 kts | 309° |
| 2026-04-30 10:49 | 40.80271 | -74.45406 | 14344 ft | 332 kts | 309° |
| 2026-04-30 10:49 | 40.81805 | -74.47712 | 15328 ft | 335 kts | 308° |
| 2026-04-30 10:49 | 40.83345 | -74.50028 | 16384 ft | 336 kts | 308° |
| 2026-04-30 10:50 | 40.84891 | -74.52353 | 17408 ft | 339 kts | 307° |
| 2026-04-30 10:50 | 40.86455 | -74.54710 | 18372 ft | 342 kts | 307° |
| 2026-04-30 10:50 | 40.88034 | -74.57089 | 19216 ft | 346 kts | 307° |
| 2026-04-30 10:50 | 40.89632 | -74.59503 | 20049 ft | 351 kts | 307° |
| 2026-04-30 10:51 | 40.91251 | -74.61950 | 20889 ft | 356 kts | 307° |
| 2026-04-30 10:51 | 40.92867 | -74.64393 | 21720 ft | 360 kts | 307° |
| 2026-04-30 10:51 | 40.94527 | -74.66904 | 22565 ft | 364 kts | 307° |
| 2026-04-30 10:51 | 40.96205 | -74.69444 | 23396 ft | 369 kts | 307° |
| 2026-04-30 10:52 | 40.97903 | -74.72017 | 24109 ft | 372 kts | 307° |
| 2026-04-30 10:52 | 40.99604 | -74.74593 | 24983 ft | 371 kts | 307° |
| 2026-04-30 10:52 | 41.01297 | -74.77158 | 25861 ft | 369 kts | 306° |
| 2026-04-30 10:52 | 41.02986 | -74.79721 | 26653 ft | 370 kts | 306° |
| 2026-04-30 10:53 | 41.04684 | -74.82304 | 27363 ft | 373 kts | 306° |
| 2026-04-30 10:53 | 41.06407 | -74.84929 | 27932 ft | 380 kts | 306° |
| 2026-04-30 10:53 | 41.08150 | -74.87589 | 28517 ft | 385 kts | 306° |
| 2026-04-30 10:53 | 41.09909 | -74.90271 | 29256 ft | 385 kts | 305° |
| 2026-04-30 10:54 | 41.11661 | -74.92938 | 30130 ft | 381 kts | 305° |
| 2026-04-30 10:54 | 41.13382 | -74.95558 | 31082 ft | 372 kts | 304° |
| 2026-04-30 10:54 | 41.15056 | -74.98106 | 32064 ft | 362 kts | 304° |
| 2026-04-30 10:54 | 41.16690 | -75.00600 | 32935 ft | 355 kts | 304° |
| 2026-04-30 10:55 | 41.18276 | -75.03026 | 33714 ft | 350 kts | 304° |
| 2026-04-30 10:55 | 41.19860 | -75.05455 | 34325 ft | 346 kts | 303° |
| 2026-04-30 10:55 | 41.21436 | -75.07876 | 34788 ft | 346 kts | 303° |
| 2026-04-30 10:55 | 41.23009 | -75.10295 | 35217 ft | 346 kts | 304° |
| 2026-04-30 10:56 | 41.24581 | -75.12713 | 35716 ft | 344 kts | 304° |
| 2026-04-30 10:56 | 41.26141 | -75.15112 | 36213 ft | 341 kts | 304° |
| 2026-04-30 10:56 | 41.27703 | -75.17518 | 36374 ft | 349 kts | 304° |
| 2026-04-30 10:56 | 41.29303 | -75.19991 | 36462 ft | 356 kts | 304° |
| 2026-04-30 10:57 | 41.32609 | -75.25095 | 36587 ft | 372 kts | 304° |
| 2026-04-30 10:57 | 41.36043 | -75.30398 | 36715 ft | 385 kts | 304° |
| 2026-04-30 10:58 | 41.37804 | -75.33117 | 36818 ft | 389 kts | 304° |
| 2026-04-30 10:58 | 41.39576 | -75.35853 | 36998 ft | 391 kts | 304° |
| 2026-04-30 10:58 | 41.41352 | -75.38600 | 37261 ft | 391 kts | 304° |
| 2026-04-30 10:58 | 41.43131 | -75.41355 | 37555 ft | 391 kts | 304° |
| 2026-04-30 10:59 | 41.44842 | -75.44099 | 37726 ft | 390 kts | 301° |
| 2026-04-30 10:59 | 41.46354 | -75.47095 | 37774 ft | 388 kts | 297° |
| 2026-04-30 10:59 | 41.48994 | -75.53349 | 37820 ft | 384 kts | 292° |
| 2026-04-30 11:00 | 41.50984 | -75.59878 | 37819 ft | 377 kts | 288° |
| 2026-04-30 11:00 | 41.52826 | -75.66405 | 37834 ft | 375 kts | 288° |
| 2026-04-30 11:01 | 41.54677 | -75.72911 | 37829 ft | 374 kts | 288° |
| 2026-04-30 11:01 | 41.56519 | -75.79357 | 37828 ft | 375 kts | 288° |
| 2026-04-30 11:02 | 41.58375 | -75.85857 | 37821 ft | 372 kts | 288° |
| 2026-04-30 11:02 | 41.60204 | -75.92328 | 37837 ft | 374 kts | 288° |
| 2026-04-30 11:03 | 41.62045 | -75.98879 | 37837 ft | 378 kts | 288° |
| 2026-04-30 11:04 | 41.64784 | -76.08639 | 37837 ft | 382 kts | 288° |
| 2026-04-30 11:04 | 41.66652 | -76.15314 | 37831 ft | 384 kts | 288° |
| 2026-04-30 11:05 | 41.68526 | -76.22027 | 37847 ft | 386 kts | 288° |
| 2026-04-30 11:05 | 41.70409 | -76.28724 | 37848 ft | 387 kts | 288° |
| 2026-04-30 11:06 | 41.72312 | -76.35470 | 37834 ft | 387 kts | 288° |
| 2026-04-30 11:06 | 41.74201 | -76.42193 | 37844 ft | 387 kts | 287° |
| 2026-04-30 11:07 | 41.75901 | -76.48260 | 37855 ft | 387 kts | 287° |
| 2026-04-30 11:07 | 41.77589 | -76.54307 | 37861 ft | 388 kts | 287° |
| 2026-04-30 11:08 | 41.79454 | -76.61052 | 37854 ft | 388 kts | 287° |
| 2026-04-30 11:08 | 41.81325 | -76.67843 | 37858 ft | 389 kts | 287° |
| 2026-04-30 11:09 | 41.83197 | -76.74650 | 37869 ft | 390 kts | 287° |
| 2026-04-30 11:09 | 41.85072 | -76.81488 | 37856 ft | 391 kts | 287° |
| 2026-04-30 11:10 | 41.86948 | -76.88339 | 37871 ft | 392 kts | 287° |
| 2026-04-30 11:10 | 41.88823 | -76.95218 | 37866 ft | 393 kts | 287° |
| 2026-04-30 11:11 | 41.90689 | -77.02120 | 37876 ft | 394 kts | 286° |
| 2026-04-30 11:11 | 41.92559 | -77.09062 | 37878 ft | 396 kts | 286° |
| 2026-04-30 11:12 | 41.94431 | -77.16028 | 37887 ft | 397 kts | 286° |
| 2026-04-30 11:12 | 41.96305 | -77.23020 | 37886 ft | 398 kts | 286° |
| 2026-04-30 11:13 | 41.98168 | -77.29989 | 37900 ft | 399 kts | 286° |
| 2026-04-30 11:13 | 42.00047 | -77.37035 | 37899 ft | 401 kts | 286° |
| 2026-04-30 11:14 | 42.01938 | -77.44111 | 37909 ft | 402 kts | 286° |
| 2026-04-30 11:14 | 42.03874 | -77.51209 | 37916 ft | 404 kts | 286° |
| 2026-04-30 11:15 | 42.05812 | -77.58312 | 37899 ft | 405 kts | 286° |
| 2026-04-30 11:15 | 42.07748 | -77.65443 | 37909 ft | 406 kts | 286° |
| 2026-04-30 11:16 | 42.09672 | -77.72563 | 37914 ft | 407 kts | 286° |
| 2026-04-30 11:16 | 42.11618 | -77.79787 | 37908 ft | 408 kts | 286° |
| 2026-04-30 11:17 | 42.13538 | -77.86938 | 37905 ft | 409 kts | 286° |
| 2026-04-30 11:17 | 42.15469 | -77.94146 | 37910 ft | 409 kts | 286° |
| 2026-04-30 11:18 | 42.17399 | -78.01373 | 37908 ft | 410 kts | 286° |
| 2026-04-30 11:18 | 42.20295 | -78.12260 | 37911 ft | 411 kts | 286° |
| 2026-04-30 11:19 | 42.22221 | -78.19529 | 37900 ft | 412 kts | 286° |
| 2026-04-30 11:19 | 42.24150 | -78.26826 | 37881 ft | 413 kts | 286° |
| 2026-04-30 11:20 | 42.26018 | -78.34174 | 37879 ft | 414 kts | 285° |
| 2026-04-30 11:20 | 42.27837 | -78.41549 | 37876 ft | 415 kts | 285° |
| 2026-04-30 11:21 | 42.29655 | -78.48925 | 37878 ft | 416 kts | 285° |
| 2026-04-30 11:21 | 42.31493 | -78.56366 | 37896 ft | 417 kts | 285° |
| 2026-04-30 11:22 | 42.33329 | -78.63821 | 37897 ft | 418 kts | 285° |
| 2026-04-30 11:22 | 42.35170 | -78.71317 | 38184 ft | 426 kts | 285° |
| 2026-04-30 11:23 | 42.36113 | -78.75172 | 38078 ft | 436 kts | 285° |
| 2026-04-30 11:23 | 42.37072 | -78.79093 | 38019 ft | 444 kts | 285° |
| 2026-04-30 11:23 | 42.38705 | -78.85781 | 37954 ft | 456 kts | 285° |
| 2026-04-30 11:24 | 42.39588 | -78.89911 | 37930 ft | 457 kts | 281° |
| 2026-04-30 11:24 | 42.40645 | -78.99785 | 37934 ft | 455 kts | 273° |
| 2026-04-30 11:25 | 42.41342 | -79.11198 | 37921 ft | 454 kts | 273° |
| 2026-04-30 11:26 | 42.42408 | -79.28057 | 37939 ft | 449 kts | 273° |
| 2026-04-30 11:26 | 42.42942 | -79.36458 | 37927 ft | 447 kts | 273° |
| 2026-04-30 11:27 | 42.43468 | -79.44855 | 37923 ft | 446 kts | 273° |
| 2026-04-30 11:27 | 42.43986 | -79.53223 | 37931 ft | 446 kts | 273° |
| 2026-04-30 11:28 | 42.44750 | -79.65772 | 37933 ft | 446 kts | 273° |
| 2026-04-30 11:29 | 42.45253 | -79.74152 | 37930 ft | 447 kts | 273° |
| 2026-04-30 11:29 | 42.45996 | -79.86687 | 37926 ft | 448 kts | 273° |
| 2026-04-30 11:30 | 42.46730 | -79.99327 | 37930 ft | 448 kts | 273° |
| 2026-04-30 11:31 | 42.47213 | -80.07758 | 37933 ft | 449 kts | 273° |
| 2026-04-30 11:31 | 42.47689 | -80.16181 | 37945 ft | 449 kts | 273° |
| 2026-04-30 11:32 | 42.48161 | -80.24619 | 37940 ft | 449 kts | 273° |
| 2026-04-30 11:32 | 42.48622 | -80.32999 | 37942 ft | 448 kts | 273° |
| 2026-04-30 11:33 | 42.49306 | -80.45628 | 37946 ft | 448 kts | 273° |
| 2026-04-30 11:33 | 42.49754 | -80.54036 | 37944 ft | 447 kts | 273° |
| 2026-04-30 11:34 | 42.50197 | -80.62446 | 37950 ft | 447 kts | 272° |
| 2026-04-30 11:34 | 42.50617 | -80.70851 | 37949 ft | 447 kts | 272° |
| 2026-04-30 11:35 | 42.50893 | -80.79265 | 37961 ft | 446 kts | 271° |
| 2026-04-30 11:35 | 42.51349 | -80.87660 | 37956 ft | 447 kts | 277° |
| 2026-04-30 11:36 | 42.52338 | -80.95982 | 37973 ft | 447 kts | 277° |
| 2026-04-30 11:36 | 42.57064 | -81.36995 | 37954 ft | 448 kts | 277° |
| 2026-04-30 11:37 | 42.64363 | -82.03924 | 37994 ft | 448 kts | 277° |
| 2026-04-30 11:37 | 42.76563 | -83.25226 | 38042 ft | 447 kts | 276° |
| 2026-04-30 11:38 | 42.77568 | -83.35888 | 38012 ft | 447 kts | 276° |
| 2026-04-30 11:38 | 42.81690 | -83.80634 | 38014 ft | 446 kts | 276° |
| 2026-04-30 11:39 | 42.82440 | -83.89013 | 37945 ft | 447 kts | 276° |
| 2026-04-30 11:39 | 42.82816 | -83.93230 | 37514 ft | 449 kts | 276° |
| 2026-04-30 11:39 | 42.83190 | -83.97450 | 37144 ft | 446 kts | 276° |
| 2026-04-30 11:40 | 42.84921 | -84.17146 | 35455 ft | 432 kts | 276° |
| 2026-04-30 11:40 | 42.85450 | -84.23255 | 34914 ft | 435 kts | 276° |
| 2026-04-30 11:40 | 42.85805 | -84.27393 | 34454 ft | 442 kts | 276° |
| 2026-04-30 11:40 | 42.87109 | -84.42707 | 32710 ft | 447 kts | 276° |
| 2026-04-30 11:41 | 42.88104 | -84.55762 | 31173 ft | 440 kts | 272° |
| 2026-04-30 11:41 | 42.88087 | -84.59908 | 30875 ft | 435 kts | 268° |
| 2026-04-30 11:41 | 42.87840 | -84.64013 | 30697 ft | 434 kts | 264° |
| 2026-04-30 11:41 | 42.87416 | -84.68080 | 30521 ft | 433 kts | 263° |
| 2026-04-30 11:42 | 42.86982 | -84.72137 | 30348 ft | 431 kts | 263° |
| 2026-04-30 11:42 | 42.86551 | -84.76166 | 30165 ft | 429 kts | 263° |
| 2026-04-30 11:42 | 42.86123 | -84.80192 | 30040 ft | 427 kts | 263° |
| 2026-04-30 11:42 | 42.85700 | -84.84204 | 30059 ft | 431 kts | 263° |
| 2026-04-30 11:43 | 42.84838 | -84.92414 | 30062 ft | 441 kts | 263° |
| 2026-04-30 11:43 | 42.83965 | -85.00696 | 30055 ft | 441 kts | 263° |
| 2026-04-30 11:44 | 42.83088 | -85.08950 | 30057 ft | 440 kts | 263° |
| 2026-04-30 11:44 | 42.82648 | -85.13080 | 29888 ft | 442 kts | 263° |
| 2026-04-30 11:44 | 42.82204 | -85.17223 | 29428 ft | 441 kts | 263° |
| 2026-04-30 11:45 | 42.81768 | -85.21277 | 29015 ft | 436 kts | 263° |
| 2026-04-30 11:45 | 42.81329 | -85.25338 | 28591 ft | 430 kts | 263° |
| 2026-04-30 11:45 | 42.80895 | -85.29348 | 28185 ft | 427 kts | 263° |
| 2026-04-30 11:45 | 42.78755 | -85.48923 | 26253 ft | 416 kts | 263° |
| 2026-04-30 11:46 | 42.77754 | -85.55727 | 25531 ft | 416 kts | 258° |
| 2026-04-30 11:46 | 42.77002 | -85.59526 | 25172 ft | 414 kts | 257° |
| 2026-04-30 11:46 | 42.74667 | -85.71997 | 23991 ft | 408 kts | 259° |
| 2026-04-30 11:46 | 42.72140 | -85.85983 | 22520 ft | 402 kts | 259° |
| 2026-04-30 11:47 | 42.71464 | -85.89703 | 22256 ft | 400 kts | 259° |
| 2026-04-30 11:47 | 42.70795 | -85.93375 | 22077 ft | 399 kts | 259° |
| 2026-04-30 11:47 | 42.70139 | -85.96971 | 22076 ft | 393 kts | 259° |
| 2026-04-30 11:47 | 42.69485 | -86.00544 | 22057 ft | 386 kts | 259° |
| 2026-04-30 11:48 | 42.68839 | -86.04064 | 22064 ft | 383 kts | 259° |
| 2026-04-30 11:48 | 42.68194 | -86.07577 | 22064 ft | 383 kts | 259° |
| 2026-04-30 11:48 | 42.67547 | -86.11097 | 22022 ft | 385 kts | 259° |
| 2026-04-30 11:48 | 42.66894 | -86.14641 | 21749 ft | 387 kts | 259° |
| 2026-04-30 11:49 | 42.66239 | -86.18185 | 21471 ft | 384 kts | 259° |
| 2026-04-30 11:49 | 42.65590 | -86.21695 | 21214 ft | 381 kts | 259° |
| 2026-04-30 11:49 | 42.64946 | -86.25165 | 20947 ft | 378 kts | 259° |
| 2026-04-30 11:49 | 42.64303 | -86.28623 | 20694 ft | 377 kts | 259° |
| 2026-04-30 11:50 | 42.63662 | -86.32070 | 20434 ft | 376 kts | 259° |
| 2026-04-30 11:50 | 42.63022 | -86.35500 | 20181 ft | 372 kts | 259° |
| 2026-04-30 11:50 | 42.62389 | -86.38879 | 19845 ft | 367 kts | 259° |
| 2026-04-30 11:50 | 42.61764 | -86.42217 | 19462 ft | 363 kts | 259° |
| 2026-04-30 11:51 | 42.61146 | -86.45516 | 19093 ft | 359 kts | 259° |
| 2026-04-30 11:51 | 42.60533 | -86.48785 | 18736 ft | 356 kts | 259° |
| 2026-04-30 11:51 | 42.58353 | -86.60370 | 17308 ft | 348 kts | 259° |
| 2026-04-30 11:51 | 42.57283 | -86.66036 | 16587 ft | 345 kts | 259° |
| 2026-04-30 11:52 | 42.56686 | -86.69184 | 16200 ft | 343 kts | 259° |
| 2026-04-30 11:52 | 42.56077 | -86.72290 | 15798 ft | 338 kts | 257° |
| 2026-04-30 11:52 | 42.55320 | -86.75280 | 15518 ft | 331 kts | 255° |
| 2026-04-30 11:52 | 42.54533 | -86.78167 | 15266 ft | 323 kts | 255° |
| 2026-04-30 11:53 | 42.53691 | -86.80962 | 14979 ft | 321 kts | 246° |
| 2026-04-30 11:53 | 42.52313 | -86.83395 | 14723 ft | 330 kts | 231° |
| 2026-04-30 11:53 | 42.50539 | -86.85411 | 14546 ft | 336 kts | 221° |
| 2026-04-30 11:53 | 42.48588 | -86.87169 | 14350 ft | 337 kts | 219° |
| 2026-04-30 11:54 | 42.46599 | -86.88882 | 14099 ft | 340 kts | 219° |
| 2026-04-30 11:54 | 42.44592 | -86.90595 | 13879 ft | 341 kts | 218° |
| 2026-04-30 11:54 | 42.42582 | -86.92312 | 13591 ft | 342 kts | 219° |
| 2026-04-30 11:54 | 42.40585 | -86.94024 | 13309 ft | 337 kts | 219° |
| 2026-04-30 11:55 | 42.38629 | -86.95704 | 13027 ft | 330 kts | 219° |
| 2026-04-30 11:55 | 42.36732 | -86.97341 | 12759 ft | 327 kts | 219° |
| 2026-04-30 11:55 | 42.34811 | -86.99006 | 12489 ft | 329 kts | 219° |
| 2026-04-30 11:55 | 42.32875 | -87.00687 | 12221 ft | 332 kts | 219° |
| 2026-04-30 11:56 | 42.30930 | -87.02374 | 12005 ft | 332 kts | 219° |
| 2026-04-30 11:56 | 42.28791 | -87.04226 | 11771 ft | 330 kts | 219° |
| 2026-04-30 11:56 | 42.21855 | -87.10223 | 11020 ft | 327 kts | 219° |
| 2026-04-30 11:56 | 42.16589 | -87.14767 | 10466 ft | 324 kts | 219° |
| 2026-04-30 11:57 | 42.14709 | -87.16385 | 10243 ft | 317 kts | 219° |
| 2026-04-30 11:57 | 42.12877 | -87.17958 | 9972 ft | 305 kts | 219° |
| 2026-04-30 11:57 | 42.11130 | -87.19455 | 9664 ft | 292 kts | 220° |
| 2026-04-30 11:57 | 42.09428 | -87.20922 | 9399 ft | 289 kts | 220° |
| 2026-04-30 11:58 | 42.07744 | -87.22375 | 9131 ft | 286 kts | 220° |
| 2026-04-30 11:58 | 42.06093 | -87.23795 | 9058 ft | 278 kts | 220° |
| 2026-04-30 11:58 | 42.04453 | -87.25207 | 8938 ft | 284 kts | 220° |
| 2026-04-30 11:58 | 42.02778 | -87.26649 | 8764 ft | 288 kts | 219° |
| 2026-04-30 11:59 | 42.01087 | -87.28099 | 8544 ft | 288 kts | 219° |
| 2026-04-30 11:59 | 41.99583 | -87.29748 | 8283 ft | 272 kts | 240° |
| 2026-04-30 11:59 | 41.98825 | -87.31977 | 8132 ft | 256 kts | 264° |
| 2026-04-30 11:59 | 41.98724 | -87.34305 | 8037 ft | 247 kts | 277° |
| 2026-04-30 12:00 | 41.98782 | -87.36585 | 8020 ft | 241 kts | 276° |
| 2026-04-30 12:00 | 41.98811 | -87.38798 | 8002 ft | 236 kts | 276° |
| 2026-04-30 12:00 | 41.98823 | -87.40978 | 7786 ft | 233 kts | 275° |
| 2026-04-30 12:00 | 41.98827 | -87.43116 | 7497 ft | 225 kts | 275° |
| 2026-04-30 12:01 | 41.98828 | -87.45180 | 7217 ft | 219 kts | 275° |
| 2026-04-30 12:01 | 41.98830 | -87.47230 | 6923 ft | 219 kts | 275° |
| 2026-04-30 12:01 | 41.98831 | -87.49272 | 6633 ft | 218 kts | 275° |
| 2026-04-30 12:01 | 41.98830 | -87.51296 | 6333 ft | 215 kts | 275° |
| 2026-04-30 12:02 | 41.98830 | -87.53290 | 6034 ft | 213 kts | 275° |
| 2026-04-30 12:02 | 41.98831 | -87.55259 | 5786 ft | 210 kts | 275° |
| 2026-04-30 12:02 | 41.98831 | -87.57221 | 5457 ft | 209 kts | 275° |
| 2026-04-30 12:02 | 41.98830 | -87.59161 | 5183 ft | 204 kts | 275° |
| 2026-04-30 12:03 | 41.98830 | -87.61040 | 4887 ft | 199 kts | 275° |
| 2026-04-30 12:03 | 41.98830 | -87.64662 | 4332 ft | 187 kts | 274° |
| 2026-04-30 12:03 | 41.98830 | -87.66361 | 4066 ft | 181 kts | 274° |
| 2026-04-30 12:04 | 41.98830 | -87.68020 | 3823 ft | 175 kts | 274° |
| 2026-04-30 12:04 | 41.98830 | -87.69622 | 3595 ft | 168 kts | 273° |
| 2026-04-30 12:04 | 41.98831 | -87.71202 | 3387 ft | 170 kts | 273° |
| 2026-04-30 12:04 | 41.98832 | -87.72787 | 3132 ft | 167 kts | 272° |
| 2026-04-30 12:05 | 41.98831 | -87.74298 | 2918 ft | 158 kts | 272° |
| 2026-04-30 12:05 | 41.98830 | -87.75747 | 2695 ft | 150 kts | 272° |
| 2026-04-30 12:05 | 41.98831 | -87.77120 | 2519 ft | 146 kts | 272° |
| 2026-04-30 12:05 | 41.98830 | -87.78480 | 2295 ft | 144 kts | 272° |
| 2026-04-30 12:06 | 41.98829 | -87.79800 | 2086 ft | 140 kts | 272° |
| 2026-04-30 12:06 | 41.98830 | -87.81094 | 1906 ft | 137 kts | 271° |
| 2026-04-30 12:06 | 41.98830 | -87.82403 | 1750 ft | 142 kts | 272° |
| 2026-04-30 12:06 | 41.98827 | -87.83738 | 1521 ft | 143 kts | 271° |
| 2026-04-30 12:07 | 41.98829 | -87.85074 | 1287 ft | 143 kts | 271° |
| 2026-04-30 12:07 | 41.98833 | -87.86415 | 1083 ft | 144 kts | 270° |
| 2026-04-30 12:07 | 41.98833 | -87.87769 | 906 ft | 145 kts | 270° |
| 2026-04-30 12:07 | 41.98830 | -87.89096 | 713 ft | 142 kts | 270° |
| 2026-04-30 12:08 | 41.98830 | -87.90320 | 674 ft | 107 kts | 270° |
| 2026-04-30 12:08 | 41.98831 | -87.91068 | 674 ft | 55 kts | 270° |
| 2026-04-30 12:08 | 41.98830 | -87.91403 | 672 ft | 29 kts | 270° |
| 2026-04-30 12:08 | 41.98829 | -87.91654 | 673 ft | 24 kts | 265° |
| 2026-04-30 12:09 | 41.98786 | -87.91853 | 673 ft | 11 kts | 245° |
| 2026-04-30 12:09 | 41.98748 | -87.91942 | 675 ft | 7 kts | 230° |
| 2026-04-30 12:09 | 41.98711 | -87.91965 | 675 ft | 6 kts | 176° |
| 2026-04-30 12:09 | 41.98683 | -87.91930 | 675 ft | 6 kts | 108° |
| 2026-04-30 12:10 | 41.98679 | -87.91873 | 675 ft | 6 kts | 95° |
| 2026-04-30 12:10 | 41.98653 | -87.91827 | 675 ft | 7 kts | 156° |
| 2026-04-30 12:10 | 41.98605 | -87.91822 | 675 ft | 7 kts | 179° |
| 2026-04-30 12:10 | 41.98537 | -87.91821 | 675 ft | 12 kts | 179° |
| 2026-04-30 12:11 | 41.98451 | -87.91821 | 674 ft | 13 kts | 180° |
| 2026-04-30 12:11 | 41.98378 | -87.91821 | 674 ft | 6 kts | 180° |
| 2026-04-30 12:11 | 41.98334 | -87.91821 | 675 ft | 6 kts | 180° |
| 2026-04-30 12:11 | 41.98176 | -87.90656 | 675 ft | 0 kts | 157° |